createdAt,value
2023-04-23T00:01:45.981Z,7.66
2023-04-23T00:04:13.693Z,7.65
2023-04-23T00:06:42.895Z,7.62
2023-04-23T00:09:10.692Z,7.59
2023-04-23T00:11:37.610Z,7.59
2023-04-23T00:14:04.418Z,7.57
2023-04-23T00:16:31.192Z,7.54
2023-04-23T00:18:57.619Z,7.52
2023-04-23T00:21:24.121Z,7.51
2023-04-23T00:23:50.605Z,7.54
2023-04-23T00:26:18.576Z,7.54
2023-04-23T00:28:45.337Z,7.59
2023-04-23T00:31:11.949Z,7.58
2023-04-23T00:33:38.701Z,7.57
2023-04-23T00:36:06.321Z,7.56
2023-04-23T00:38:32.858Z,7.53
2023-04-23T00:40:59.301Z,7.49
2023-04-23T00:43:26.313Z,7.44
2023-04-23T00:45:52.875Z,7.39
2023-04-23T00:48:19.355Z,7.34
2023-04-23T00:50:46.404Z,7.30
2023-04-23T00:53:13.031Z,7.26
2023-04-23T00:55:40.597Z,7.23
2023-04-23T00:58:07.223Z,7.19
2023-04-23T01:00:40.692Z,7.17
2023-04-23T01:03:07.275Z,7.15
2023-04-23T01:05:34.296Z,7.17
2023-04-23T01:08:00.773Z,7.18
2023-04-23T01:10:27.158Z,7.22
2023-04-23T01:12:53.579Z,7.21
2023-04-23T01:15:20.051Z,7.20
2023-04-23T01:17:46.709Z,7.19
2023-04-23T01:20:13.186Z,7.18
2023-04-23T01:22:39.643Z,7.18
2023-04-23T01:25:08.201Z,7.19
2023-04-23T01:27:36.355Z,7.20
2023-04-23T01:30:04.950Z,7.24
2023-04-23T01:32:32.429Z,7.30
2023-04-23T01:34:59.714Z,7.32
2023-04-23T01:37:26.400Z,7.35
2023-04-23T01:39:53.257Z,7.37
2023-04-23T01:42:19.965Z,7.38
2023-04-23T01:44:46.628Z,7.38
2023-04-23T01:47:13.295Z,7.36
2023-04-23T01:49:39.931Z,7.37
2023-04-23T01:52:06.432Z,7.38
2023-04-23T01:54:32.946Z,7.37
2023-04-23T01:56:59.520Z,7.37
2023-04-23T01:59:26.100Z,7.37
2023-04-23T02:01:52.651Z,7.37
2023-04-23T02:04:19.555Z,7.37
2023-04-23T02:06:50.343Z,7.36
2023-04-23T02:09:16.898Z,7.38
2023-04-23T02:11:43.384Z,7.40
2023-04-23T02:14:10.200Z,7.40
2023-04-23T02:16:36.852Z,7.41
2023-04-23T02:19:03.687Z,7.42
2023-04-23T02:21:30.404Z,7.48
2023-04-23T02:23:57.420Z,7.50
2023-04-23T02:26:25.147Z,7.53
2023-04-23T02:28:51.929Z,7.54
2023-04-23T02:31:20.693Z,7.57
2023-04-23T02:33:47.840Z,7.61
2023-04-23T02:36:14.795Z,7.63
2023-04-23T02:38:45.754Z,7.63
2023-04-23T02:41:12.484Z,7.64
2023-04-23T02:43:38.971Z,7.62
2023-04-23T02:46:08.726Z,7.61
2023-04-23T02:48:41.086Z,7.61
2023-04-23T02:51:10.346Z,7.62
2023-04-23T02:53:37.063Z,7.61
2023-04-23T02:56:03.630Z,7.61
2023-04-23T02:58:30.528Z,7.61
2023-04-23T03:00:57.795Z,7.59
2023-04-23T03:03:26.879Z,7.59
2023-04-23T03:05:54.295Z,7.58
2023-04-23T03:08:20.843Z,7.60
2023-04-23T03:10:47.465Z,7.59
2023-04-23T03:13:14.405Z,7.59
2023-04-23T03:15:41.164Z,7.60
2023-04-23T03:18:08.562Z,7.60
2023-04-23T03:20:36.262Z,7.56
2023-04-23T03:23:03.583Z,7.58
2023-04-23T03:25:30.421Z,7.57
2023-04-23T03:27:57.040Z,7.57
2023-04-23T03:30:23.661Z,7.53
2023-04-23T03:32:50.881Z,7.52
2023-04-23T03:35:17.499Z,7.55
2023-04-23T03:37:44.140Z,7.62
2023-04-23T03:40:10.908Z,7.66
2023-04-23T03:42:37.533Z,7.67
2023-04-23T03:45:04.755Z,7.65
2023-04-23T03:47:31.722Z,7.63
2023-04-23T03:49:58.221Z,7.63
2023-04-23T03:52:24.997Z,7.61
2023-04-23T03:54:51.603Z,7.59
2023-04-23T03:57:18.232Z,7.57
2023-04-23T03:59:44.822Z,7.53
2023-04-23T04:02:11.621Z,7.47
2023-04-23T04:04:38.285Z,7.46
2023-04-23T04:07:07.529Z,7.44
2023-04-23T04:09:33.996Z,7.42
2023-04-23T04:12:00.568Z,7.40
2023-04-23T04:14:27.175Z,7.40
2023-04-23T04:16:53.599Z,7.38
2023-04-23T04:19:20.756Z,7.36
2023-04-23T04:21:47.787Z,7.34
2023-04-23T04:24:14.456Z,7.31
2023-04-23T04:26:41.371Z,7.28
2023-04-23T04:29:09.420Z,7.27
2023-04-23T04:31:36.120Z,7.23
2023-04-23T04:34:06.510Z,7.21
2023-04-23T04:36:33.109Z,7.22
2023-04-23T04:38:59.742Z,7.22
2023-04-23T04:41:26.309Z,7.24
2023-04-23T04:43:52.857Z,7.27
2023-04-23T04:46:20.822Z,7.28
2023-04-23T04:48:48.370Z,7.31
2023-04-23T04:51:15.365Z,7.34
2023-04-23T04:53:42.151Z,7.35
2023-04-23T04:56:09.243Z,7.38
2023-04-23T04:58:36.430Z,7.43
2023-04-23T05:01:03.177Z,7.50
2023-04-23T05:03:30.048Z,7.59
2023-04-23T05:05:56.875Z,7.69
2023-04-23T05:08:23.308Z,7.69
2023-04-23T05:10:54.298Z,7.70
2023-04-23T05:13:20.796Z,7.69
2023-04-23T05:15:47.161Z,7.72
2023-04-23T05:18:13.822Z,7.72
2023-04-23T05:20:41.114Z,7.74
2023-04-23T05:23:07.563Z,7.88
2023-04-23T05:25:35.703Z,8.34
2023-04-23T05:28:02.531Z,9.03
2023-04-23T05:30:29.241Z,10.47
2023-04-23T05:32:56.201Z,11.46
2023-04-23T05:35:22.754Z,12.70
2023-04-23T05:37:49.204Z,14.19
2023-04-23T05:40:17.691Z,14.87
2023-04-23T05:42:44.233Z,15.70
2023-04-23T05:45:11.599Z,16.49
2023-04-23T05:47:38.211Z,17.35
2023-04-23T05:50:06.148Z,17.89
2023-04-23T05:52:35.640Z,18.77
2023-04-23T05:55:01.977Z,19.48
2023-04-23T05:57:37.955Z,20.27
2023-04-23T06:00:05.918Z,20.82
2023-04-23T06:02:33.999Z,20.94
2023-04-23T06:05:00.874Z,21.42
2023-04-23T06:07:27.611Z,22.23
2023-04-23T06:09:54.137Z,22.64
2023-04-23T06:12:20.727Z,22.87
2023-04-23T06:14:47.880Z,23.13
2023-04-23T06:17:14.472Z,23.59
2023-04-23T06:19:41.616Z,23.94
2023-04-23T06:22:08.263Z,24.56
2023-04-23T06:24:35.494Z,24.57
2023-04-23T06:27:04.372Z,24.59
2023-04-23T06:29:30.956Z,24.93
2023-04-23T06:32:01.736Z,25.09
2023-04-23T06:34:28.154Z,24.96
2023-04-23T06:36:54.696Z,25.45
2023-04-23T06:39:21.361Z,24.64
2023-04-23T06:41:47.800Z,21.84
2023-04-23T06:44:14.189Z,20.98
2023-04-23T06:46:41.825Z,19.99
2023-04-23T06:49:08.450Z,19.55
2023-04-23T06:51:35.413Z,19.92
2023-04-23T06:54:01.934Z,18.76
2023-04-23T06:56:28.376Z,17.97
2023-04-23T06:58:54.952Z,17.77
2023-04-23T07:01:21.589Z,17.21
2023-04-23T07:03:49.362Z,17.28
2023-04-23T07:06:16.387Z,17.76
2023-04-23T07:08:44.974Z,17.07
2023-04-23T07:11:11.924Z,16.44
2023-04-23T07:13:39.730Z,16.13
2023-04-23T07:16:06.168Z,16.15
2023-04-23T07:18:32.697Z,16.44
2023-04-23T07:20:59.173Z,17.07
2023-04-23T07:23:25.836Z,19.93
2023-04-23T07:25:52.428Z,22.23
2023-04-23T07:28:18.900Z,23.33
2023-04-23T07:30:45.562Z,23.58
2023-04-23T07:33:12.248Z,23.64
2023-04-23T07:35:38.700Z,23.60
2023-04-23T07:38:05.958Z,24.21
2023-04-23T07:40:32.635Z,24.05
2023-04-23T07:42:59.627Z,24.67
2023-04-23T07:45:26.257Z,24.71
2023-04-23T07:47:52.787Z,24.24
2023-04-23T07:50:19.485Z,24.35
2023-04-23T07:52:45.932Z,23.89
2023-04-23T07:55:12.348Z,23.91
2023-04-23T07:57:38.779Z,24.07
2023-04-23T08:00:09.330Z,24.47
2023-04-23T08:02:36.041Z,24.76
2023-04-23T08:05:03.123Z,24.32
2023-04-23T08:07:29.978Z,24.34
2023-04-23T08:09:59.283Z,24.11
2023-04-23T08:12:25.847Z,24.40
2023-04-23T08:14:52.215Z,23.92
2023-04-23T08:17:18.573Z,23.84
2023-04-23T08:19:45.122Z,23.44
2023-04-23T08:22:13.419Z,23.64
2023-04-23T08:24:39.812Z,23.97
2023-04-23T08:27:06.677Z,23.65
2023-04-23T08:29:33.143Z,23.40
2023-04-23T08:31:59.900Z,23.26
2023-04-23T08:34:26.589Z,23.57
2023-04-23T08:36:53.196Z,23.52
2023-04-23T08:39:19.692Z,23.45
2023-04-23T08:41:54.044Z,23.14
2023-04-23T08:44:25.998Z,22.84
2023-04-23T08:46:54.340Z,23.38
2023-04-23T08:49:20.889Z,23.30
2023-04-23T08:51:53.541Z,23.08
2023-04-23T08:54:29.725Z,22.95
2023-04-23T08:56:58.584Z,22.86
2023-04-23T08:59:31.882Z,23.21
2023-04-23T09:02:01.140Z,23.45
2023-04-23T09:04:28.820Z,23.77
2023-04-23T09:06:55.984Z,23.35
2023-04-23T09:09:23.864Z,23.09
2023-04-23T09:11:52.206Z,22.67
2023-04-23T09:14:19.917Z,22.53
2023-04-23T09:16:46.478Z,22.84
2023-04-23T09:19:13.284Z,23.12
2023-04-23T09:21:41.149Z,22.94
2023-04-23T09:24:13.124Z,22.36
2023-04-23T09:26:49.665Z,22.77
2023-04-23T09:29:18.556Z,22.86
2023-04-23T09:31:51.535Z,23.07
2023-04-23T09:34:19.440Z,23.15
2023-04-23T09:36:49.397Z,23.61
2023-04-23T09:39:24.209Z,23.46
2023-04-23T09:41:54.121Z,23.25
2023-04-23T09:44:26.474Z,23.16
2023-04-23T09:46:52.971Z,22.90
2023-04-23T09:49:19.399Z,22.48
2023-04-23T09:51:50.139Z,22.34
2023-04-23T09:54:24.357Z,22.11
2023-04-23T09:56:53.783Z,22.34
2023-04-23T09:59:39.583Z,22.53
2023-04-23T10:02:13.136Z,22.73
2023-04-23T10:04:40.453Z,21.86
2023-04-23T10:07:19.067Z,21.26
2023-04-23T10:09:47.797Z,21.42
2023-04-23T10:14:46.215Z,21.34
2023-04-23T10:17:12.924Z,22.16
2023-04-23T10:19:43.310Z,22.56
2023-04-23T10:22:19.306Z,21.85
2023-04-23T10:24:51.612Z,21.56
2023-04-23T10:29:49.608Z,20.18
2023-04-23T10:32:17.771Z,20.11
2023-04-23T10:34:45.631Z,20.08
2023-04-23T10:37:13.516Z,20.36
2023-04-23T10:39:44.030Z,20.42
2023-04-23T10:42:13.403Z,20.19
2023-04-23T10:44:57.433Z,20.01
2023-04-23T10:47:27.554Z,19.70
2023-04-23T10:49:54.003Z,19.41
2023-04-23T10:52:23.766Z,19.11
2023-04-23T10:55:00.162Z,19.56
2023-04-23T10:57:27.015Z,19.71
2023-04-23T10:59:55.159Z,20.06
2023-04-23T11:02:25.658Z,20.37
2023-04-23T11:04:57.620Z,20.53
2023-04-23T11:07:32.299Z,20.20
2023-04-23T11:10:12.862Z,19.94
2023-04-23T11:12:40.556Z,20.02
2023-04-23T11:15:15.250Z,19.79
2023-04-23T11:17:44.485Z,19.51
2023-04-23T11:20:21.865Z,19.24
2023-04-23T11:22:50.430Z,19.47
2023-04-23T11:25:24.695Z,19.38
2023-04-23T11:27:52.487Z,19.34
2023-04-23T11:30:21.513Z,19.40
2023-04-23T11:32:49.967Z,19.11
2023-04-23T11:35:18.986Z,19.21
2023-04-23T11:37:48.345Z,19.25
2023-04-23T11:40:20.241Z,19.52
2023-04-23T11:42:55.383Z,19.98
2023-04-23T11:45:29.811Z,19.84
2023-04-23T11:47:58.315Z,19.59
2023-04-23T11:50:30.689Z,19.13
2023-04-23T11:52:57.382Z,18.98
2023-04-23T11:55:24.204Z,19.09
2023-04-23T11:57:52.553Z,19.45
2023-04-23T12:00:20.842Z,19.50
2023-04-23T12:02:58.432Z,19.44
2023-04-23T12:05:32.951Z,19.32
2023-04-23T12:08:14.593Z,19.18
2023-04-23T12:10:46.615Z,18.91
2023-04-23T12:13:18.469Z,18.76
2023-04-23T12:15:50.124Z,18.87
2023-04-23T12:18:17.387Z,19.06
2023-04-23T12:20:44.775Z,19.06
2023-04-23T12:23:11.206Z,18.92
2023-04-23T12:25:40.729Z,18.92
2023-04-23T12:28:07.781Z,19.12
2023-04-23T12:30:49.867Z,19.31
2023-04-23T12:33:21.864Z,19.20
2023-04-23T12:35:51.939Z,19.22
2023-04-23T12:38:26.939Z,19.03
2023-04-23T12:40:55.379Z,18.81
2023-04-23T12:43:22.058Z,18.91
2023-04-23T12:45:49.280Z,18.83
2023-04-23T12:48:15.936Z,18.92
2023-04-23T12:50:42.865Z,19.26
2023-04-23T12:53:09.306Z,19.20
2023-04-23T12:55:35.867Z,19.65
2023-04-23T12:58:02.428Z,19.76
2023-04-23T13:00:29.040Z,19.46
2023-04-23T13:02:56.290Z,19.13
2023-04-23T13:05:24.461Z,18.74
2023-04-23T13:07:51.025Z,18.62
2023-04-23T13:10:17.391Z,18.68
2023-04-23T13:12:43.862Z,18.74
2023-04-23T13:15:12.910Z,18.85
2023-04-23T13:17:39.506Z,18.71
2023-04-23T13:20:06.970Z,18.73
2023-04-23T13:22:33.770Z,18.75
2023-04-23T13:25:00.211Z,18.68
2023-04-23T13:27:28.614Z,18.63
2023-04-23T13:29:56.506Z,18.65
2023-04-23T13:32:28.741Z,18.49
2023-04-23T13:34:55.550Z,18.38
2023-04-23T13:37:24.054Z,18.29
2023-04-23T13:39:50.593Z,18.30
2023-04-23T13:42:17.016Z,18.31
2023-04-23T13:44:43.375Z,18.26
2023-04-23T13:50:06.717Z,18.45
2023-04-23T13:52:34.028Z,18.51
2023-04-23T13:55:02.715Z,18.38
2023-04-23T13:57:32.407Z,18.17
2023-04-23T14:00:00.223Z,17.99
2023-04-23T14:02:27.171Z,17.93
2023-04-23T14:04:54.135Z,17.92
2023-04-23T14:07:21.056Z,18.10
2023-04-23T14:09:47.670Z,18.17
2023-04-23T14:12:14.078Z,18.32
2023-04-23T14:14:40.855Z,18.19
2023-04-23T14:17:07.441Z,18.06
2023-04-23T14:19:36.145Z,17.96
2023-04-23T14:22:03.226Z,17.96
2023-04-23T14:24:50.461Z,17.83
2023-04-23T14:27:17.461Z,17.61
2023-04-23T14:29:52.252Z,17.50
2023-04-23T14:32:18.646Z,17.42
2023-04-23T14:34:45.043Z,17.40
2023-04-23T14:37:11.503Z,17.45
2023-04-23T14:39:38.078Z,17.48
2023-04-23T14:42:04.699Z,17.47
2023-04-23T14:44:31.084Z,17.48
2023-04-23T14:46:57.456Z,17.37
2023-04-23T14:49:24.392Z,17.29
2023-04-23T14:51:54.457Z,17.21
2023-04-23T14:54:24.759Z,16.90
2023-04-23T14:56:51.735Z,16.62
2023-04-23T14:59:18.133Z,16.34
2023-04-23T15:01:44.967Z,16.03
2023-04-23T15:04:12.042Z,15.48
2023-04-23T15:06:40.327Z,14.85
2023-04-23T15:09:06.835Z,14.27
2023-04-23T15:11:33.391Z,13.89
2023-04-23T15:14:30.087Z,13.65
2023-04-23T15:16:56.631Z,13.34
2023-04-23T15:19:23.231Z,13.27
2023-04-23T15:21:49.916Z,13.17
2023-04-23T15:24:17.147Z,12.98
2023-04-23T15:26:46.016Z,12.84
2023-04-23T15:29:13.581Z,12.72
2023-04-23T15:31:40.700Z,12.75
2023-04-23T15:34:09.401Z,12.77
2023-04-23T15:36:38.039Z,12.76
2023-04-23T15:39:04.912Z,12.75
2023-04-23T15:41:31.371Z,12.81
2023-04-23T15:43:57.833Z,12.70
2023-04-23T15:46:24.398Z,12.63
2023-04-23T15:48:50.816Z,12.66
2023-04-23T15:51:17.744Z,12.57
2023-04-23T15:53:44.191Z,12.49
2023-04-23T15:56:10.590Z,12.37
2023-04-23T15:58:37.012Z,12.34
2023-04-23T16:01:03.691Z,12.37
2023-04-23T16:03:30.588Z,12.32
2023-04-23T16:05:57.254Z,12.23
2023-04-23T16:08:23.741Z,12.23
2023-04-23T16:10:50.117Z,12.25
2023-04-23T16:13:16.509Z,12.21
2023-04-23T16:15:43.105Z,12.12
2023-04-23T16:18:09.711Z,12.13
2023-04-23T16:20:36.228Z,12.16
2023-04-23T16:23:02.820Z,12.10
2023-04-23T16:25:29.306Z,12.16
2023-04-23T16:27:56.038Z,12.09
2023-04-23T16:30:22.849Z,11.99
2023-04-23T16:32:49.484Z,12.01
2023-04-23T16:35:15.942Z,12.02
2023-04-23T16:37:42.392Z,12.04
2023-04-23T16:40:10.264Z,12.09
2023-04-23T16:42:36.992Z,12.05
2023-04-23T16:45:04.998Z,12.08
2023-04-23T16:47:40.645Z,12.05
2023-04-23T16:50:07.811Z,12.06
2023-04-23T16:52:34.369Z,11.97
2023-04-23T16:55:01.255Z,12.02
2023-04-23T16:57:28.303Z,11.97
2023-04-23T16:59:54.903Z,11.93
2023-04-23T17:02:21.776Z,11.96
2023-04-23T17:04:48.965Z,11.95
2023-04-23T17:07:15.989Z,11.96
2023-04-23T17:09:42.478Z,11.97
2023-04-23T17:12:08.879Z,11.93
2023-04-23T17:14:35.497Z,12.00
2023-04-23T17:17:02.101Z,11.99
2023-04-23T17:19:31.121Z,11.93
2023-04-23T17:21:58.718Z,11.88
2023-04-23T17:24:33.674Z,11.78
2023-04-23T17:27:01.142Z,11.76
2023-04-23T17:29:27.719Z,11.76
2023-04-23T17:31:54.537Z,11.85
2023-04-23T17:34:21.084Z,11.80
2023-04-23T17:36:47.582Z,11.71
2023-04-23T17:39:27.379Z,11.63
2023-04-23T17:41:54.637Z,11.69
2023-04-23T17:44:21.096Z,11.67
2023-04-23T17:46:47.639Z,11.65
2023-04-23T17:49:14.129Z,11.65
2023-04-23T17:51:40.892Z,11.63
2023-04-23T17:54:09.369Z,11.60
2023-04-23T17:56:35.952Z,11.62
2023-04-23T17:59:02.359Z,11.58
2023-04-23T18:01:29.152Z,11.54
2023-04-23T18:04:10.890Z,11.53
2023-04-23T18:06:37.473Z,11.52
2023-04-23T18:09:04.023Z,11.53
2023-04-23T18:11:40.085Z,11.59
2023-04-23T18:14:06.735Z,11.52
2023-04-23T18:16:33.156Z,11.46
2023-04-23T18:18:59.653Z,11.38
2023-04-23T18:21:27.544Z,11.35
2023-04-23T18:23:54.004Z,11.33
2023-04-23T18:26:20.450Z,11.33
2023-04-23T18:28:46.816Z,11.27
2023-04-23T18:31:13.418Z,11.19
2023-04-23T18:33:52.269Z,11.18
2023-04-23T18:36:29.805Z,11.19
2023-04-23T18:38:56.509Z,11.20
2023-04-23T18:41:29.226Z,11.22
2023-04-23T18:43:55.749Z,11.23
2023-04-23T18:46:23.404Z,11.23
2023-04-23T18:48:59.757Z,11.26
2023-04-23T18:51:44.921Z,11.30
2023-04-23T18:54:15.063Z,11.29
2023-04-23T18:56:41.795Z,11.31
2023-04-23T18:59:08.299Z,11.34
2023-04-23T19:01:35.027Z,11.36
2023-04-23T19:04:01.871Z,11.28
2023-04-23T19:06:28.501Z,11.27
2023-04-23T19:08:54.965Z,11.24
2023-04-23T19:11:21.609Z,11.23
2023-04-23T19:13:47.983Z,11.19
2023-04-23T19:16:16.799Z,11.16
2023-04-23T19:18:43.417Z,11.18
2023-04-23T19:21:10.557Z,11.17
2023-04-23T19:23:37.250Z,11.15
2023-04-23T19:26:03.997Z,11.18
2023-04-23T19:28:30.699Z,11.20
2023-04-23T19:30:57.624Z,11.19
2023-04-23T19:33:24.279Z,11.19
2023-04-23T19:35:50.861Z,11.16
2023-04-23T19:38:17.420Z,11.15
2023-04-23T19:40:43.931Z,11.13
2023-04-23T19:43:12.642Z,11.15
2023-04-23T19:45:39.393Z,11.14
2023-04-23T19:48:07.541Z,11.12
2023-04-23T19:50:34.459Z,11.09
2023-04-23T19:53:00.989Z,11.08
2023-04-23T19:55:27.545Z,11.10
2023-04-23T19:57:58.576Z,11.10
2023-04-23T20:00:26.631Z,11.15
2023-04-23T20:02:53.287Z,11.13
2023-04-23T20:05:27.788Z,11.14
2023-04-23T20:07:54.184Z,11.12
2023-04-23T20:10:20.791Z,11.08
2023-04-23T20:12:47.358Z,11.07
2023-04-23T20:15:14.359Z,11.07
2023-04-23T20:17:41.156Z,11.04
2023-04-23T20:20:13.814Z,11.03
2023-04-23T20:22:40.251Z,10.99
2023-04-23T20:25:07.709Z,10.93
2023-04-23T20:27:34.683Z,10.90
2023-04-23T20:30:01.157Z,10.86
2023-04-23T20:32:27.986Z,10.84
2023-04-23T20:34:54.405Z,10.79
2023-04-23T20:37:21.761Z,10.77
2023-04-23T20:39:49.273Z,10.77
2023-04-23T20:42:15.661Z,10.74
2023-04-23T20:44:45.663Z,10.75
2023-04-23T20:47:12.633Z,10.75
2023-04-23T20:49:40.249Z,10.79
2023-04-23T20:52:07.478Z,10.79
2023-04-23T20:54:34.815Z,10.82
2023-04-23T20:57:02.415Z,10.81
2023-04-23T20:59:28.901Z,10.82
2023-04-23T21:01:55.748Z,10.78
2023-04-23T21:04:22.402Z,10.72
2023-04-23T21:06:49.184Z,10.67
2023-04-23T21:09:16.327Z,10.65
2023-04-23T21:11:48.320Z,10.56
2023-04-23T21:14:14.830Z,10.44
2023-04-23T21:16:41.271Z,10.37
2023-04-23T21:19:07.713Z,10.29
2023-04-23T21:21:34.291Z,10.21
2023-04-23T21:24:01.151Z,10.16
2023-04-23T21:26:29.676Z,10.05
2023-04-23T21:28:56.199Z,9.96
2023-04-23T21:31:42.731Z,9.90
2023-04-23T21:34:09.620Z,9.84
2023-04-23T21:36:36.203Z,9.81
2023-04-23T21:39:02.947Z,9.77
2023-04-23T21:41:29.524Z,9.79
2023-04-23T21:43:56.220Z,9.78
2023-04-23T21:46:24.001Z,9.81
2023-04-23T21:48:53.762Z,9.80
2023-04-23T21:51:25.072Z,9.76
2023-04-23T21:53:51.571Z,9.79
2023-04-23T21:56:18.244Z,9.80
2023-04-23T21:58:56.041Z,9.81
2023-04-23T22:01:22.617Z,9.83
2023-04-23T22:03:58.414Z,9.84
2023-04-23T22:06:31.116Z,9.83
2023-04-23T22:08:57.812Z,9.84
2023-04-23T22:11:24.358Z,9.81
2023-04-23T22:13:50.881Z,9.83
2023-04-23T22:16:27.603Z,9.85
2023-04-23T22:18:56.507Z,9.86
2023-04-23T22:21:23.553Z,9.83
2023-04-23T22:23:50.088Z,9.86
2023-04-23T22:26:16.754Z,9.85
2023-04-23T22:28:43.987Z,9.83
2023-04-23T22:31:10.630Z,9.83
2023-04-23T22:33:37.758Z,9.83
2023-04-23T22:36:05.278Z,9.85
2023-04-23T22:38:32.569Z,9.91
2023-04-23T22:40:59.717Z,9.90
2023-04-23T22:43:35.062Z,9.91
2023-04-23T22:46:04.795Z,9.97
2023-04-23T22:48:31.445Z,9.98
2023-04-23T22:50:58.534Z,10.04
2023-04-23T22:53:37.502Z,10.01
2023-04-23T22:56:03.995Z,10.01
2023-04-23T22:58:30.921Z,9.98
2023-04-23T23:00:57.570Z,10.00
2023-04-23T23:03:24.125Z,9.95
2023-04-23T23:05:50.950Z,9.93
2023-04-23T23:08:20.488Z,9.87
2023-04-23T23:10:46.893Z,9.82
2023-04-23T23:13:13.540Z,9.80
2023-04-23T23:15:45.326Z,9.78
2023-04-23T23:18:23.770Z,9.72
2023-04-23T23:20:50.832Z,9.66
2023-04-23T23:23:17.247Z,9.62
2023-04-23T23:25:43.796Z,9.58
2023-04-23T23:28:10.202Z,9.60
2023-04-23T23:30:36.827Z,9.58
2023-04-23T23:33:06.317Z,9.48
2023-04-23T23:35:32.726Z,9.44
2023-04-23T23:37:59.310Z,9.44
2023-04-23T23:43:06.366Z,9.38
2023-04-23T23:45:34.428Z,9.46
2023-04-23T23:48:01.176Z,9.41
2023-04-23T23:50:27.741Z,9.39
2023-04-23T23:52:54.572Z,9.36
2023-04-23T23:55:21.146Z,9.40
2023-04-23T23:57:47.509Z,9.35
